sensor_id;sensor_type;location;lat;lon;timestamp;temperature;humidity
6824;DHT22;58633;49.470;11.004;2023-01-04T00:01:12;4.80;75.20
6824;DHT22;58633;49.470;11.004;2023-01-04T00:03:38;4.90;75.50
6824;DHT22;58633;49.470;11.004;2023-01-04T00:06:05;4.80;75.40
6824;DHT22;58633;49.470;11.004;2023-01-04T00:08:31;4.80;75.70
6824;DHT22;58633;49.470;11.004;2023-01-04T00:11:05;4.80;75.80
6824;DHT22;58633;49.470;11.004;2023-01-04T00:13:32;4.80;76.10
6824;DHT22;58633;49.470;11.004;2023-01-04T00:15:58;4.70;76.20
6824;DHT22;58633;49.470;11.004;2023-01-04T00:18:23;4.70;76.50
6824;DHT22;58633;49.470;11.004;2023-01-04T00:20:49;4.70;76.80
6824;DHT22;58633;49.470;11.004;2023-01-04T00:23:14;4.70;77.20
6824;DHT22;58633;49.470;11.004;2023-01-04T00:25:40;4.80;77.50
6824;DHT22;58633;49.470;11.004;2023-01-04T00:28:06;4.70;77.00
6824;DHT22;58633;49.470;11.004;2023-01-04T00:30:32;4.70;77.00
6824;DHT22;58633;49.470;11.004;2023-01-04T00:32:57;4.70;77.50
6824;DHT22;58633;49.470;11.004;2023-01-04T00:35:23;4.70;77.60
6824;DHT22;58633;49.470;11.004;2023-01-04T00:37:49;4.70;78.10
6824;DHT22;58633;49.470;11.004;2023-01-04T00:40:15;4.70;78.40
6824;DHT22;58633;49.470;11.004;2023-01-04T00:42:40;4.70;78.70
6824;DHT22;58633;49.470;11.004;2023-01-04T00:45:06;4.70;78.40
6824;DHT22;58633;49.470;11.004;2023-01-04T00:47:32;4.70;78.80
6824;DHT22;58633;49.470;11.004;2023-01-04T00:49:57;4.70;78.90
6824;DHT22;58633;49.470;11.004;2023-01-04T00:52:23;4.60;79.10
6824;DHT22;58633;49.470;11.004;2023-01-04T00:54:48;6.60;81.30
6824;DHT22;58633;49.470;11.004;2023-01-04T00:57:14;4.60;79.80
6824;DHT22;58633;49.470;11.004;2023-01-04T00:59:39;4.60;80.00
6824;DHT22;58633;49.470;11.004;2023-01-04T01:02:05;4.50;79.70
6824;DHT22;58633;49.470;11.004;2023-01-04T01:04:30;4.60;80.10
6824;DHT22;58633;49.470;11.004;2023-01-04T01:06:56;4.50;80.60
6824;DHT22;58633;49.470;11.004;2023-01-04T01:09:21;4.50;80.60
6824;DHT22;58633;49.470;11.004;2023-01-04T01:11:47;4.50;81.10
6824;DHT22;58633;49.470;11.004;2023-01-04T01:14:17;4.40;80.60
6824;DHT22;58633;49.470;11.004;2023-01-04T01:16:42;4.50;81.10
6824;DHT22;58633;49.470;11.004;2023-01-04T01:19:08;4.50;81.10
6824;DHT22;58633;49.470;11.004;2023-01-04T01:21:34;4.40;80.80
6824;DHT22;58633;49.470;11.004;2023-01-04T01:23:59;4.40;81.60
6824;DHT22;58633;49.470;11.004;2023-01-04T01:26:26;4.40;81.20
6824;DHT22;58633;49.470;11.004;2023-01-04T01:28:52;4.30;81.50
6824;DHT22;58633;49.470;11.004;2023-01-04T01:31:20;4.30;81.90
6824;DHT22;58633;49.470;11.004;2023-01-04T01:33:47;4.30;81.90
6824;DHT22;58633;49.470;11.004;2023-01-04T01:36:14;4.30;81.90
6824;DHT22;58633;49.470;11.004;2023-01-04T01:38:40;4.20;82.70
6824;DHT22;58633;49.470;11.004;2023-01-04T01:41:07;4.20;83.10
6824;DHT22;58633;49.470;11.004;2023-01-04T01:49:02;4.20;83.40
6824;DHT22;58633;49.470;11.004;2023-01-04T01:51:30;4.20;83.70
6824;DHT22;58633;49.470;11.004;2023-01-04T01:54:02;4.20;83.20
6824;DHT22;58633;49.470;11.004;2023-01-04T01:56:29;4.10;83.60
6824;DHT22;58633;49.470;11.004;2023-01-04T01:58:57;4.10;84.40
6824;DHT22;58633;49.470;11.004;2023-01-04T02:01:24;4.00;84.80
6824;DHT22;58633;49.470;11.004;2023-01-04T02:03:50;4.10;86.30
6824;DHT22;58633;49.470;11.004;2023-01-04T02:06:24;4.10;85.90
6824;DHT22;58633;49.470;11.004;2023-01-04T02:08:51;4.10;86.90
6824;DHT22;58633;49.470;11.004;2023-01-04T02:11:17;4.00;87.10
6824;DHT22;58633;49.470;11.004;2023-01-04T02:13:43;3.90;87.80
6824;DHT22;58633;49.470;11.004;2023-01-04T02:16:49;3.90;88.80
6824;DHT22;58633;49.470;11.004;2023-01-04T02:34:07;4.00;91.30
6824;DHT22;58633;49.470;11.004;2023-01-04T02:39:46;4.10;92.30
6824;DHT22;58633;49.470;11.004;2023-01-04T02:45:47;3.90;92.80
6824;DHT22;58633;49.470;11.004;2023-01-04T02:48:16;4.00;93.70
6824;DHT22;58633;49.470;11.004;2023-01-04T02:51:01;4.00;93.90
6824;DHT22;58633;49.470;11.004;2023-01-04T02:53:37;4.30;94.70
6824;DHT22;58633;49.470;11.004;2023-01-04T02:56:17;4.10;94.70
6824;DHT22;58633;49.470;11.004;2023-01-04T03:02:03;4.10;95.30
6824;DHT22;58633;49.470;11.004;2023-01-04T03:05:24;4.10;95.80
6824;DHT22;58633;49.470;11.004;2023-01-04T03:08:28;4.10;95.90
6824;DHT22;58633;49.470;11.004;2023-01-04T03:11:07;4.20;95.90
6824;DHT22;58633;49.470;11.004;2023-01-04T03:13:57;4.20;96.00
6824;DHT22;58633;49.470;11.004;2023-01-04T03:16:23;4.10;96.30
6824;DHT22;58633;49.470;11.004;2023-01-04T03:18:54;4.10;97.00
6824;DHT22;58633;49.470;11.004;2023-01-04T03:21:22;4.10;97.60
6824;DHT22;58633;49.470;11.004;2023-01-04T03:23:51;4.20;98.40
6824;DHT22;58633;49.470;11.004;2023-01-04T03:26:42;4.20;98.70
6824;DHT22;58633;49.470;11.004;2023-01-04T03:29:30;4.20;99.10
6824;DHT22;58633;49.470;11.004;2023-01-04T03:32:23;4.30;99.40
6824;DHT22;58633;49.470;11.004;2023-01-04T03:35:09;4.30;99.30
6824;DHT22;58633;49.470;11.004;2023-01-04T03:38:05;4.30;99.10
6824;DHT22;58633;49.470;11.004;2023-01-04T03:41:06;4.30;99.90
6824;DHT22;58633;49.470;11.004;2023-01-04T03:47:03;6.00;99.90
6824;DHT22;58633;49.470;11.004;2023-01-04T03:50:13;4.40;99.90
6824;DHT22;58633;49.470;11.004;2023-01-04T03:52:42;4.40;99.90
6824;DHT22;58633;49.470;11.004;2023-01-04T03:55:10;4.40;99.90
6824;DHT22;58633;49.470;11.004;2023-01-04T03:57:36;4.40;99.90
6824;DHT22;58633;49.470;11.004;2023-01-04T04:00:16;4.50;99.90
6824;DHT22;58633;49.470;11.004;2023-01-04T04:02:45;4.50;99.90
6824;DHT22;58633;49.470;11.004;2023-01-04T04:05:17;4.60;99.90
6824;DHT22;58633;49.470;11.004;2023-01-04T04:08:02;4.60;99.90
6824;DHT22;58633;49.470;11.004;2023-01-04T04:10:46;4.60;99.90
6824;DHT22;58633;49.470;11.004;2023-01-04T04:13:12;4.60;99.90
6824;DHT22;58633;49.470;11.004;2023-01-04T04:15:37;4.70;99.90
6824;DHT22;58633;49.470;11.004;2023-01-04T04:18:04;4.70;99.90
6824;DHT22;58633;49.470;11.004;2023-01-04T04:20:30;4.80;99.90
6824;DHT22;58633;49.470;11.004;2023-01-04T04:22:55;4.80;99.90
6824;DHT22;58633;49.470;11.004;2023-01-04T04:25:21;4.80;99.90
6824;DHT22;58633;49.470;11.004;2023-01-04T04:27:46;4.80;99.90
6824;DHT22;58633;49.470;11.004;2023-01-04T04:30:12;4.90;99.90
6824;DHT22;58633;49.470;11.004;2023-01-04T04:32:38;4.90;99.90
6824;DHT22;58633;49.470;11.004;2023-01-04T04:35:04;4.90;99.90
6824;DHT22;58633;49.470;11.004;2023-01-04T04:37:29;4.90;99.90
6824;DHT22;58633;49.470;11.004;2023-01-04T04:39:59;4.90;99.90
6824;DHT22;58633;49.470;11.004;2023-01-04T04:42:25;4.90;99.90
6824;DHT22;58633;49.470;11.004;2023-01-04T04:44:50;4.90;99.90
6824;DHT22;58633;49.470;11.004;2023-01-04T04:47:16;4.90;99.90
6824;DHT22;58633;49.470;11.004;2023-01-04T04:49:41;5.00;99.90
6824;DHT22;58633;49.470;11.004;2023-01-04T04:52:07;5.00;99.90
6824;DHT22;58633;49.470;11.004;2023-01-04T04:54:33;5.00;99.90
6824;DHT22;58633;49.470;11.004;2023-01-04T04:56:58;5.00;99.90
6824;DHT22;58633;49.470;11.004;2023-01-04T04:59:24;5.00;99.90
6824;DHT22;58633;49.470;11.004;2023-01-04T05:01:50;5.10;99.90
6824;DHT22;58633;49.470;11.004;2023-01-04T05:04:15;5.10;99.90
6824;DHT22;58633;49.470;11.004;2023-01-04T05:06:44;5.20;99.90
6824;DHT22;58633;49.470;11.004;2023-01-04T05:09:11;5.10;99.90
6824;DHT22;58633;49.470;11.004;2023-01-04T05:11:37;5.10;99.90
6824;DHT22;58633;49.470;11.004;2023-01-04T05:14:21;5.20;99.90
6824;DHT22;58633;49.470;11.004;2023-01-04T05:16:46;5.20;99.90
6824;DHT22;58633;49.470;11.004;2023-01-04T05:19:12;5.10;99.90
6824;DHT22;58633;49.470;11.004;2023-01-04T05:21:37;5.20;99.90
6824;DHT22;58633;49.470;11.004;2023-01-04T05:24:05;5.20;99.90
6824;DHT22;58633;49.470;11.004;2023-01-04T05:26:31;5.20;99.90
6824;DHT22;58633;49.470;11.004;2023-01-04T05:28:57;5.10;99.90
6824;DHT22;58633;49.470;11.004;2023-01-04T05:31:22;5.20;99.90
6824;DHT22;58633;49.470;11.004;2023-01-04T05:33:48;5.10;99.90
6824;DHT22;58633;49.470;11.004;2023-01-04T05:36:14;5.20;99.90
6824;DHT22;58633;49.470;11.004;2023-01-04T05:38:39;5.20;99.90
6824;DHT22;58633;49.470;11.004;2023-01-04T05:41:05;5.30;99.90
6824;DHT22;58633;49.470;11.004;2023-01-04T05:43:50;5.30;99.90
6824;DHT22;58633;49.470;11.004;2023-01-04T05:46:16;5.30;99.90
6824;DHT22;58633;49.470;11.004;2023-01-04T05:48:41;5.30;99.90
6824;DHT22;58633;49.470;11.004;2023-01-04T05:51:07;5.40;99.90
6824;DHT22;58633;49.470;11.004;2023-01-04T05:53:32;5.30;99.90
6824;DHT22;58633;49.470;11.004;2023-01-04T05:55:58;5.40;99.90
6824;DHT22;58633;49.470;11.004;2023-01-04T05:58:23;5.30;99.90
6824;DHT22;58633;49.470;11.004;2023-01-04T06:00:49;5.30;99.90
6824;DHT22;58633;49.470;11.004;2023-01-04T06:03:14;5.30;99.90
6824;DHT22;58633;49.470;11.004;2023-01-04T06:05:40;5.30;99.90
6824;DHT22;58633;49.470;11.004;2023-01-04T06:08:05;5.40;99.90
6824;DHT22;58633;49.470;11.004;2023-01-04T06:10:32;5.50;99.90
6824;DHT22;58633;49.470;11.004;2023-01-04T06:12:57;5.40;99.90
6824;DHT22;58633;49.470;11.004;2023-01-04T06:15:23;5.40;99.90
6824;DHT22;58633;49.470;11.004;2023-01-04T06:17:48;5.40;99.90
6824;DHT22;58633;49.470;11.004;2023-01-04T06:20:14;5.40;99.90
6824;DHT22;58633;49.470;11.004;2023-01-04T06:22:40;5.40;99.90
6824;DHT22;58633;49.470;11.004;2023-01-04T06:25:07;5.50;99.90
6824;DHT22;58633;49.470;11.004;2023-01-04T06:27:33;5.50;99.90
6824;DHT22;58633;49.470;11.004;2023-01-04T06:29:58;5.50;99.90
6824;DHT22;58633;49.470;11.004;2023-01-04T06:32:24;5.50;99.90
6824;DHT22;58633;49.470;11.004;2023-01-04T06:34:49;5.50;99.90
6824;DHT22;58633;49.470;11.004;2023-01-04T06:37:15;5.50;99.90
6824;DHT22;58633;49.470;11.004;2023-01-04T06:39:40;5.50;99.90
6824;DHT22;58633;49.470;11.004;2023-01-04T06:42:06;5.50;99.90
6824;DHT22;58633;49.470;11.004;2023-01-04T06:44:51;5.50;99.90
6824;DHT22;58633;49.470;11.004;2023-01-04T06:47:17;5.50;99.90
6824;DHT22;58633;49.470;11.004;2023-01-04T06:49:42;5.50;99.90
6824;DHT22;58633;49.470;11.004;2023-01-04T06:52:08;5.50;99.90
6824;DHT22;58633;49.470;11.004;2023-01-04T06:54:33;5.50;99.90
6824;DHT22;58633;49.470;11.004;2023-01-04T06:56:59;5.50;99.90
6824;DHT22;58633;49.470;11.004;2023-01-04T06:59:24;5.50;99.90
6824;DHT22;58633;49.470;11.004;2023-01-04T07:01:50;5.60;99.90
6824;DHT22;58633;49.470;11.004;2023-01-04T07:04:15;5.60;99.90
6824;DHT22;58633;49.470;11.004;2023-01-04T07:06:41;5.60;99.90
6824;DHT22;58633;49.470;11.004;2023-01-04T07:09:06;5.60;99.90
6824;DHT22;58633;49.470;11.004;2023-01-04T07:11:32;5.60;99.90
6824;DHT22;58633;49.470;11.004;2023-01-04T07:13:57;5.70;99.90
6824;DHT22;58633;49.470;11.004;2023-01-04T07:16:23;5.70;99.90
6824;DHT22;58633;49.470;11.004;2023-01-04T07:18:48;5.70;99.90
6824;DHT22;58633;49.470;11.004;2023-01-04T07:21:14;5.80;99.90
6824;DHT22;58633;49.470;11.004;2023-01-04T07:23:39;6.10;99.90
6824;DHT22;58633;49.470;11.004;2023-01-04T07:26:05;6.20;98.50
6824;DHT22;58633;49.470;11.004;2023-01-04T07:28:30;6.10;97.60
6824;DHT22;58633;49.470;11.004;2023-01-04T07:31:16;6.10;98.00
6824;DHT22;58633;49.470;11.004;2023-01-04T07:33:41;6.10;98.90
6824;DHT22;58633;49.470;11.004;2023-01-04T07:36:07;6.10;98.80
6824;DHT22;58633;49.470;11.004;2023-01-04T07:38:33;6.10;98.40
6824;DHT22;58633;49.470;11.004;2023-01-04T07:40:59;6.10;99.40
6824;DHT22;58633;49.470;11.004;2023-01-04T07:43:25;6.10;98.60
6824;DHT22;58633;49.470;11.004;2023-01-04T07:45:50;6.20;99.90
6824;DHT22;58633;49.470;11.004;2023-01-04T07:48:16;6.40;99.50
6824;DHT22;58633;49.470;11.004;2023-01-04T07:50:44;6.40;95.70
6824;DHT22;58633;49.470;11.004;2023-01-04T07:53:09;6.30;95.90
6824;DHT22;58633;49.470;11.004;2023-01-04T07:55:36;6.30;96.40
6824;DHT22;58633;49.470;11.004;2023-01-04T07:58:02;6.30;96.90
6824;DHT22;58633;49.470;11.004;2023-01-04T08:00:27;6.20;96.80
6824;DHT22;58633;49.470;11.004;2023-01-04T08:02:53;6.20;96.90
6824;DHT22;58633;49.470;11.004;2023-01-04T08:05:18;6.20;97.20
6824;DHT22;58633;49.470;11.004;2023-01-04T08:07:44;6.20;97.70
6824;DHT22;58633;49.470;11.004;2023-01-04T08:10:09;6.20;97.70
6824;DHT22;58633;49.470;11.004;2023-01-04T08:12:35;6.20;97.80
6824;DHT22;58633;49.470;11.004;2023-01-04T08:15:00;6.20;98.20
6824;DHT22;58633;49.470;11.004;2023-01-04T08:17:26;6.20;98.60
6824;DHT22;58633;49.470;11.004;2023-01-04T08:19:51;6.20;98.80
6824;DHT22;58633;49.470;11.004;2023-01-04T08:22:17;6.20;98.90
6824;DHT22;58633;49.470;11.004;2023-01-04T08:24:42;6.20;98.90
6824;DHT22;58633;49.470;11.004;2023-01-04T08:27:08;6.40;99.90
6824;DHT22;58633;49.470;11.004;2023-01-04T08:29:35;6.60;99.80
6824;DHT22;58633;49.470;11.004;2023-01-04T08:32:02;6.60;97.30
6824;DHT22;58633;49.470;11.004;2023-01-04T08:34:27;6.60;97.00
6824;DHT22;58633;49.470;11.004;2023-01-04T08:36:54;6.60;97.60
6824;DHT22;58633;49.470;11.004;2023-01-04T08:39:19;6.60;98.00
6824;DHT22;58633;49.470;11.004;2023-01-04T08:41:46;6.60;98.10
6824;DHT22;58633;49.470;11.004;2023-01-04T08:44:19;6.60;97.90
6824;DHT22;58633;49.470;11.004;2023-01-04T08:46:46;6.60;97.70
6824;DHT22;58633;49.470;11.004;2023-01-04T08:49:12;6.60;97.40
6824;DHT22;58633;49.470;11.004;2023-01-04T08:51:37;6.70;97.40
6824;DHT22;58633;49.470;11.004;2023-01-04T08:54:03;6.70;96.90
6824;DHT22;58633;49.470;11.004;2023-01-04T08:56:29;6.70;96.60
6824;DHT22;58633;49.470;11.004;2023-01-04T08:58:54;6.70;96.00
6824;DHT22;58633;49.470;11.004;2023-01-04T09:01:20;6.80;96.30
6824;DHT22;58633;49.470;11.004;2023-01-04T09:03:45;6.90;95.50
6824;DHT22;58633;49.470;11.004;2023-01-04T09:06:12;6.90;95.00
6824;DHT22;58633;49.470;11.004;2023-01-04T09:08:39;6.90;95.10
6824;DHT22;58633;49.470;11.004;2023-01-04T09:11:10;7.00;94.40
6824;DHT22;58633;49.470;11.004;2023-01-04T09:13:36;7.00;94.00
6824;DHT22;58633;49.470;11.004;2023-01-04T09:16:07;7.00;94.30
6824;DHT22;58633;49.470;11.004;2023-01-04T09:18:33;7.00;93.50
6824;DHT22;58633;49.470;11.004;2023-01-04T09:21:04;7.00;93.60
6824;DHT22;58633;49.470;11.004;2023-01-04T09:23:30;7.10;93.40
6824;DHT22;58633;49.470;11.004;2023-01-04T09:25:58;7.20;93.00
6824;DHT22;58633;49.470;11.004;2023-01-04T09:28:24;7.10;93.00
6824;DHT22;58633;49.470;11.004;2023-01-04T09:30:49;7.20;92.80
6824;DHT22;58633;49.470;11.004;2023-01-04T09:33:15;7.20;92.40
6824;DHT22;58633;49.470;11.004;2023-01-04T09:35:40;7.30;92.40
6824;DHT22;58633;49.470;11.004;2023-01-04T09:38:06;7.30;91.90
6824;DHT22;58633;49.470;11.004;2023-01-04T09:43:23;7.40;90.70
6824;DHT22;58633;49.470;11.004;2023-01-04T09:45:52;7.50;89.80
6824;DHT22;58633;49.470;11.004;2023-01-04T09:48:21;7.60;87.30
6824;DHT22;58633;49.470;11.004;2023-01-04T09:50:57;7.60;85.40
6824;DHT22;58633;49.470;11.004;2023-01-04T09:53:29;7.70;83.90
6824;DHT22;58633;49.470;11.004;2023-01-04T09:56:09;7.80;82.60
6824;DHT22;58633;49.470;11.004;2023-01-04T09:58:40;7.90;81.10
6824;DHT22;58633;49.470;11.004;2023-01-04T10:01:10;8.00;80.30
6824;DHT22;58633;49.470;11.004;2023-01-04T10:03:45;8.10;79.60
6824;DHT22;58633;49.470;11.004;2023-01-04T10:06:12;8.20;78.70
6824;DHT22;58633;49.470;11.004;2023-01-04T10:08:43;8.20;77.40
6824;DHT22;58633;49.470;11.004;2023-01-04T10:16:48;8.40;75.70
6824;DHT22;58633;49.470;11.004;2023-01-04T10:21:53;8.40;75.20
6824;DHT22;58633;49.470;11.004;2023-01-04T10:30:01;8.40;74.20
6824;DHT22;58633;49.470;11.004;2023-01-04T10:35:01;8.40;73.80
6824;DHT22;58633;49.470;11.004;2023-01-04T10:37:34;8.50;73.90
6824;DHT22;58633;49.470;11.004;2023-01-04T10:40:01;8.50;73.50
6824;DHT22;58633;49.470;11.004;2023-01-04T10:42:36;8.50;73.40
6824;DHT22;58633;49.470;11.004;2023-01-04T10:45:10;8.50;73.40
6824;DHT22;58633;49.470;11.004;2023-01-04T10:48:00;8.50;73.10
6824;DHT22;58633;49.470;11.004;2023-01-04T10:53:25;8.60;73.00
6824;DHT22;58633;49.470;11.004;2023-01-04T10:56:27;8.60;72.70
6824;DHT22;58633;49.470;11.004;2023-01-04T10:59:12;8.70;72.60
6824;DHT22;58633;49.470;11.004;2023-01-04T11:01:44;8.70;72.40
6824;DHT22;58633;49.470;11.004;2023-01-04T11:04:14;8.60;72.10
6824;DHT22;58633;49.470;11.004;2023-01-04T11:09:26;8.70;71.90
6824;DHT22;58633;49.470;11.004;2023-01-04T11:11:56;8.70;71.60
6824;DHT22;58633;49.470;11.004;2023-01-04T11:14:22;8.70;71.40
6824;DHT22;58633;49.470;11.004;2023-01-04T11:16:51;8.80;71.50
6824;DHT22;58633;49.470;11.004;2023-01-04T11:19:20;8.80;71.50
6824;DHT22;58633;49.470;11.004;2023-01-04T11:21:49;8.90;71.40
6824;DHT22;58633;49.470;11.004;2023-01-04T11:24:16;9.10;71.30
6824;DHT22;58633;49.470;11.004;2023-01-04T11:26:44;8.90;70.80
6824;DHT22;58633;49.470;11.004;2023-01-04T11:32:29;9.00;70.40
6824;DHT22;58633;49.470;11.004;2023-01-04T11:34:56;9.10;70.20
6824;DHT22;58633;49.470;11.004;2023-01-04T11:39:49;9.10;69.80
6824;DHT22;58633;49.470;11.004;2023-01-04T11:42:20;9.20;69.90
6824;DHT22;58633;49.470;11.004;2023-01-04T11:44:57;9.20;69.50
6824;DHT22;58633;49.470;11.004;2023-01-04T11:47:23;9.20;69.40
6824;DHT22;58633;49.470;11.004;2023-01-04T11:49:50;9.30;69.30
6824;DHT22;58633;49.470;11.004;2023-01-04T11:52:31;9.30;69.10
6824;DHT22;58633;49.470;11.004;2023-01-04T11:55:27;9.40;69.20
6824;DHT22;58633;49.470;11.004;2023-01-04T11:58:13;9.50;69.40
6824;DHT22;58633;49.470;11.004;2023-01-04T12:00:56;9.50;69.00
6824;DHT22;58633;49.470;11.004;2023-01-04T12:05:50;9.50;68.70
6824;DHT22;58633;49.470;11.004;2023-01-04T12:08:35;9.50;68.70
6824;DHT22;58633;49.470;11.004;2023-01-04T12:11:03;9.50;68.40
6824;DHT22;58633;49.470;11.004;2023-01-04T12:13:31;9.60;68.50
6824;DHT22;58633;49.470;11.004;2023-01-04T12:16:25;9.60;68.40
6824;DHT22;58633;49.470;11.004;2023-01-04T12:18:53;9.60;68.30
6824;DHT22;58633;49.470;11.004;2023-01-04T12:21:21;9.80;68.70
6824;DHT22;58633;49.470;11.004;2023-01-04T12:23:47;9.80;68.50
6824;DHT22;58633;49.470;11.004;2023-01-04T12:26:13;9.90;68.30
6824;DHT22;58633;49.470;11.004;2023-01-04T12:28:52;9.80;68.10
6824;DHT22;58633;49.470;11.004;2023-01-04T12:31:36;9.90;68.10
6824;DHT22;58633;49.470;11.004;2023-01-04T12:36:55;9.90;67.80
6824;DHT22;58633;49.470;11.004;2023-01-04T12:50:06;10.20;66.60
6824;DHT22;58633;49.470;11.004;2023-01-04T12:52:33;10.20;66.60
6824;DHT22;58633;49.470;11.004;2023-01-04T12:55:01;10.20;66.70
6824;DHT22;58633;49.470;11.004;2023-01-04T12:57:32;10.30;66.70
6824;DHT22;58633;49.470;11.004;2023-01-04T13:00:00;10.30;66.70
6824;DHT22;58633;49.470;11.004;2023-01-04T13:02:31;10.30;66.70
6824;DHT22;58633;49.470;11.004;2023-01-04T13:04:59;10.20;66.60
6824;DHT22;58633;49.470;11.004;2023-01-04T13:07:29;10.20;66.60
6824;DHT22;58633;49.470;11.004;2023-01-04T13:10:00;10.30;66.70
6824;DHT22;58633;49.470;11.004;2023-01-04T13:14:57;10.20;66.80
6824;DHT22;58633;49.470;11.004;2023-01-04T13:17:26;10.20;66.90
6824;DHT22;58633;49.470;11.004;2023-01-04T13:19:52;10.20;67.10
6824;DHT22;58633;49.470;11.004;2023-01-04T13:22:26;10.20;67.10
6824;DHT22;58633;49.470;11.004;2023-01-04T13:24:53;10.20;67.10
6824;DHT22;58633;49.470;11.004;2023-01-04T13:27:22;10.30;67.40
6824;DHT22;58633;49.470;11.004;2023-01-04T13:29:49;10.30;67.50
6824;DHT22;58633;49.470;11.004;2023-01-04T13:32:22;10.30;67.50
6824;DHT22;58633;49.470;11.004;2023-01-04T13:34:53;10.30;67.60
6824;DHT22;58633;49.470;11.004;2023-01-04T13:42:40;10.40;67.90
6824;DHT22;58633;49.470;11.004;2023-01-04T13:47:45;10.30;67.90
6824;DHT22;58633;49.470;11.004;2023-01-04T13:50:36;10.40;68.20
6824;DHT22;58633;49.470;11.004;2023-01-04T13:53:03;10.40;68.20
6824;DHT22;58633;49.470;11.004;2023-01-04T13:55:31;10.40;68.30
6824;DHT22;58633;49.470;11.004;2023-01-04T13:57:59;10.40;68.30
6824;DHT22;58633;49.470;11.004;2023-01-04T14:00:29;10.40;68.40
6824;DHT22;58633;49.470;11.004;2023-01-04T14:05:38;10.40;68.70
6824;DHT22;58633;49.470;11.004;2023-01-04T14:08:09;10.40;68.70
6824;DHT22;58633;49.470;11.004;2023-01-04T14:10:35;10.40;68.90
6824;DHT22;58633;49.470;11.004;2023-01-04T14:13:02;10.40;69.00
6824;DHT22;58633;49.470;11.004;2023-01-04T14:15:28;10.40;69.10
6824;DHT22;58633;49.470;11.004;2023-01-04T14:17:58;10.40;69.20
6824;DHT22;58633;49.470;11.004;2023-01-04T14:22:52;10.50;69.60
6824;DHT22;58633;49.470;11.004;2023-01-04T14:33:41;10.50;70.00
6824;DHT22;58633;49.470;11.004;2023-01-04T14:36:28;10.50;70.20
6824;DHT22;58633;49.470;11.004;2023-01-04T14:41:29;10.50;70.30
6824;DHT22;58633;49.470;11.004;2023-01-04T14:46:24;10.50;70.70
6824;DHT22;58633;49.470;11.004;2023-01-04T14:48:50;10.50;70.80
6824;DHT22;58633;49.470;11.004;2023-01-04T14:51:22;10.60;71.20
6824;DHT22;58633;49.470;11.004;2023-01-04T14:53:48;10.60;71.30
6824;DHT22;58633;49.470;11.004;2023-01-04T14:56:16;10.60;71.20
6824;DHT22;58633;49.470;11.004;2023-01-04T14:58:43;10.60;71.20
6824;DHT22;58633;49.470;11.004;2023-01-04T15:01:10;10.60;71.50
6824;DHT22;58633;49.470;11.004;2023-01-04T15:03:36;10.50;71.60
6824;DHT22;58633;49.470;11.004;2023-01-04T15:06:02;10.50;71.80
6824;DHT22;58633;49.470;11.004;2023-01-04T15:08:29;10.50;72.00
6824;DHT22;58633;49.470;11.004;2023-01-04T15:10:55;10.50;72.20
6824;DHT22;58633;49.470;11.004;2023-01-04T15:13:20;10.50;72.30
6824;DHT22;58633;49.470;11.004;2023-01-04T15:15:46;10.40;72.50
6824;DHT22;58633;49.470;11.004;2023-01-04T15:18:11;10.30;72.90
6824;DHT22;58633;49.470;11.004;2023-01-04T15:20:38;10.30;73.10
6824;DHT22;58633;49.470;11.004;2023-01-04T15:23:04;10.20;73.40
6824;DHT22;58633;49.470;11.004;2023-01-04T15:25:30;10.10;74.00
6824;DHT22;58633;49.470;11.004;2023-01-04T15:27:56;9.90;75.80
6824;DHT22;58633;49.470;11.004;2023-01-04T15:30:22;9.70;77.60
6824;DHT22;58633;49.470;11.004;2023-01-04T15:32:47;9.50;78.50
6824;DHT22;58633;49.470;11.004;2023-01-04T15:35:13;9.40;79.90
6824;DHT22;58633;49.470;11.004;2023-01-04T15:37:45;9.40;81.70
6824;DHT22;58633;49.470;11.004;2023-01-04T15:40:12;9.40;86.00
6824;DHT22;58633;49.470;11.004;2023-01-04T15:42:38;9.30;91.30
6824;DHT22;58633;49.470;11.004;2023-01-04T15:45:22;9.40;94.20
6824;DHT22;58633;49.470;11.004;2023-01-04T15:47:52;9.30;96.40
6824;DHT22;58633;49.470;11.004;2023-01-04T15:50:18;9.30;98.60
6824;DHT22;58633;49.470;11.004;2023-01-04T15:52:44;9.30;99.90
6824;DHT22;58633;49.470;11.004;2023-01-04T15:55:10;9.30;99.90
6824;DHT22;58633;49.470;11.004;2023-01-04T15:57:36;9.20;99.90
6824;DHT22;58633;49.470;11.004;2023-01-04T16:00:03;9.20;99.90
6824;DHT22;58633;49.470;11.004;2023-01-04T16:02:29;9.20;99.90
6824;DHT22;58633;49.470;11.004;2023-01-04T16:04:54;9.20;99.90
6824;DHT22;58633;49.470;11.004;2023-01-04T16:07:20;9.20;99.90
6824;DHT22;58633;49.470;11.004;2023-01-04T16:09:45;9.20;99.90
6824;DHT22;58633;49.470;11.004;2023-01-04T16:12:11;9.20;99.90
6824;DHT22;58633;49.470;11.004;2023-01-04T16:14:55;9.30;99.90
6824;DHT22;58633;49.470;11.004;2023-01-04T16:17:21;9.30;99.90
6824;DHT22;58633;49.470;11.004;2023-01-04T16:19:46;9.30;99.90
6824;DHT22;58633;49.470;11.004;2023-01-04T16:22:12;9.30;99.90
6824;DHT22;58633;49.470;11.004;2023-01-04T16:24:37;9.30;99.90
6824;DHT22;58633;49.470;11.004;2023-01-04T16:27:03;9.20;99.90
6824;DHT22;58633;49.470;11.004;2023-01-04T16:29:30;9.30;99.90
6824;DHT22;58633;49.470;11.004;2023-01-04T16:31:55;9.20;99.90
6824;DHT22;58633;49.470;11.004;2023-01-04T16:34:21;9.20;99.90
6824;DHT22;58633;49.470;11.004;2023-01-04T16:36:48;9.20;99.90
6824;DHT22;58633;49.470;11.004;2023-01-04T16:39:13;9.20;99.90
6824;DHT22;58633;49.470;11.004;2023-01-04T16:41:39;9.20;99.90
6824;DHT22;58633;49.470;11.004;2023-01-04T16:44:05;9.20;99.90
6824;DHT22;58633;49.470;11.004;2023-01-04T16:46:32;9.20;99.90
6824;DHT22;58633;49.470;11.004;2023-01-04T16:49:04;9.30;99.90
6824;DHT22;58633;49.470;11.004;2023-01-04T16:51:33;9.20;99.90
6824;DHT22;58633;49.470;11.004;2023-01-04T16:54:00;9.20;99.90
6824;DHT22;58633;49.470;11.004;2023-01-04T16:56:26;9.20;99.90
6824;DHT22;58633;49.470;11.004;2023-01-04T16:58:52;9.20;99.90
6824;DHT22;58633;49.470;11.004;2023-01-04T17:01:23;9.30;99.90
6824;DHT22;58633;49.470;11.004;2023-01-04T17:03:50;9.30;99.90
6824;DHT22;58633;49.470;11.004;2023-01-04T17:06:21;9.30;99.90
6824;DHT22;58633;49.470;11.004;2023-01-04T17:08:49;9.30;99.90
6824;DHT22;58633;49.470;11.004;2023-01-04T17:11:17;9.20;99.90
6824;DHT22;58633;49.470;11.004;2023-01-04T17:13:43;9.20;99.90
6824;DHT22;58633;49.470;11.004;2023-01-04T17:16:09;9.20;99.90
6824;DHT22;58633;49.470;11.004;2023-01-04T17:18:36;9.20;99.90
6824;DHT22;58633;49.470;11.004;2023-01-04T17:21:04;9.20;99.90
6824;DHT22;58633;49.470;11.004;2023-01-04T17:23:32;9.20;99.90
6824;DHT22;58633;49.470;11.004;2023-01-04T17:26:02;9.20;99.90
6824;DHT22;58633;49.470;11.004;2023-01-04T17:28:28;9.20;99.90
6824;DHT22;58633;49.470;11.004;2023-01-04T17:30:54;9.20;99.90
6824;DHT22;58633;49.470;11.004;2023-01-04T17:33:20;9.20;99.90
6824;DHT22;58633;49.470;11.004;2023-01-04T17:35:45;9.20;99.90
6824;DHT22;58633;49.470;11.004;2023-01-04T17:38:11;9.20;99.90
6824;DHT22;58633;49.470;11.004;2023-01-04T17:40:36;9.20;99.90
6824;DHT22;58633;49.470;11.004;2023-01-04T17:43:02;9.20;99.90
6824;DHT22;58633;49.470;11.004;2023-01-04T17:45:28;9.30;99.90